Time;durP1;ratioP1;P1;durP2;ratioP2;P2;SDS_P1;SDS_P2;PMS_P1;PMS_P2;Temp;Humidity;BMP_temperature;BMP_pressure;BME280_temperature;BME280_humidity;BME280_pressure;Samples;Min_cycle;Max_cycle;Signal;HPM_P1;HPM_P2
2022/01/10 00:01:36;;;;;;;1.77;1.63;;;-8.30;99.90;;;;;;4916578;29;20080;-67
2022/01/10 00:04:02;;;;;;;1.75;1.65;;;-8.30;99.90;;;;;;4917196;29;20404;-67
2022/01/10 00:06:27;;;;;;;1.60;1.50;;;-8.20;99.90;;;;;;4917245;29;20032;-67
2022/01/10 00:08:53;;;;;;;1.80;1.70;;;-8.20;99.90;;;;;;4917391;29;20048;-67
2022/01/10 00:11:19;;;;;;;2.08;1.88;;;-8.20;99.90;;;;;;4915982;29;20480;-67
2022/01/10 00:13:44;;;;;;;1.55;1.45;;;-8.20;99.90;;;;;;4917292;29;20059;-67
2022/01/10 00:16:10;;;;;;;1.70;1.60;;;-8.20;99.90;;;;;;4917166;29;20028;-67
2022/01/10 00:18:36;;;;;;;2.08;1.70;;;-8.20;99.90;;;;;;4917298;29;20392;-67
2022/01/10 00:21:01;;;;;;;4.30;1.55;;;-8.20;99.90;;;;;;4916954;29;20472;-67
2022/01/10 00:23:28;;;;;;;1.67;1.58;;;-8.20;99.90;;;;;;4917242;29;20028;-67
2022/01/10 00:25:54;;;;;;;1.88;1.63;;;-8.20;99.90;;;;;;4916777;29;20396;-67
2022/01/10 00:28:20;;;;;;;2.95;1.60;;;-8.20;99.90;;;;;;4916884;29;20040;-67
2022/01/10 00:30:46;;;;;;;4.28;1.60;;;-8.20;99.90;;;;;;4916710;29;20441;-67
2022/01/10 00:33:11;;;;;;;1.67;1.58;;;-8.20;99.90;;;;;;4917131;29;20032;-67
2022/01/10 00:35:37;;;;;;;1.65;1.50;;;-8.30;99.90;;;;;;4917155;29;20028;-67
2022/01/10 00:38:03;;;;;;;1.80;1.70;;;-8.30;99.90;;;;;;4916344;29;20480;-68
2022/01/10 00:40:29;;;;;;;2.88;1.65;;;-8.30;99.90;;;;;;4916791;29;20036;-67
2022/01/10 00:42:56;;;;;;;1.63;1.52;;;-8.30;99.90;;;;;;4916783;29;20072;-67
2022/01/10 00:45:26;;;;;;;2.10;1.90;;;-8.30;99.90;;;;;;4916767;29;20441;-67
2022/01/10 00:47:52;;;;;;;4.97;1.87;;;-8.30;99.90;;;;;;4916655;29;20044;-67
2022/01/10 00:50:19;;;;;;;2.72;1.80;;;-8.30;99.90;;;;;;4916683;29;20028;-67
2022/01/10 00:52:45;;;;;;;2.25;1.95;;;-8.20;99.90;;;;;;4916736;29;20436;-67
2022/01/10 00:55:12;;;;;;;1.60;1.50;;;-8.10;99.90;;;;;;4916886;29;20113;-67
2022/01/10 00:57:38;;;;;;;1.90;1.75;;;-8.10;99.90;;;;;;4916432;29;20068;-67
2022/01/10 01:00:05;;;;;;;4.50;1.90;;;-8.00;99.90;;;;;;4916350;29;20032;-67
2022/01/10 01:02:31;;;;;;;1.60;1.45;;;-7.90;99.90;;;;;;4916699;29;20044;-67
2022/01/10 01:05:04;;;;;;;1.70;1.60;;;-7.90;99.90;;;;;;4916491;29;20028;-67
2022/01/10 01:07:30;;;;;;;1.88;1.70;;;-8.00;99.90;;;;;;4916228;29;20074;-67
2022/01/10 01:10:16;;;;;;;2.00;1.80;;;-8.10;99.90;;;;;;4916077;29;20622;-67
2022/01/10 01:12:52;;;;;;;2.88;1.48;;;-8.10;99.90;;;;;;4915553;29;20072;-68
2022/01/10 01:15:23;;;;;;;2.53;2.08;;;-8.10;99.90;;;;;;4916476;29;20107;-66
2022/01/10 01:25:49;;;;;;;2.80;1.75;;;-8.00;99.90;;;;;;4915970;29;20031;-65
2022/01/10 01:28:15;;;;;;;2.80;1.83;;;-8.00;99.90;;;;;;4915960;29;20437;-65
2022/01/10 01:30:42;;;;;;;4.97;1.67;;;-7.90;99.90;;;;;;4915937;29;20028;-65
2022/01/10 01:33:08;;;;;;;1.80;1.70;;;-7.90;99.90;;;;;;4916238;29;20036;-65
2022/01/10 01:35:36;;;;;;;4.28;1.80;;;-7.90;99.90;;;;;;4915951;29;20032;-65
2022/01/10 01:38:02;;;;;;;1.65;1.55;;;-7.90;99.90;;;;;;4915419;29;20908;-65
2022/01/10 01:40:30;;;;;;;3.38;1.60;;;-8.00;99.90;;;;;;4915915;29;20492;-64
2022/01/10 01:42:56;;;;;;;2.08;1.67;;;-8.00;99.90;;;;;;4915826;29;20055;-65
2022/01/10 01:45:43;;;;;;;1.90;1.70;;;-8.00;99.90;;;;;;4915847;29;20028;-65
2022/01/10 01:48:10;;;;;;;2.35;1.70;;;-8.00;99.90;;;;;;4915932;29;20091;-65
2022/01/10 01:50:36;;;;;;;1.67;1.50;;;-7.90;99.90;;;;;;4915801;29;20083;-64
2022/01/10 01:53:04;;;;;;;1.95;1.70;;;-8.00;99.90;;;;;;4915880;29;20032;-65
2022/01/10 01:55:30;;;;;;;1.60;1.50;;;-8.00;99.90;;;;;;4915774;29;20055;-65
2022/01/10 01:57:56;;;;;;;1.88;1.75;;;-8.00;99.90;;;;;;4915507;29;20129;-65
2022/01/10 02:00:23;;;;;;;1.63;1.30;;;-7.90;99.90;;;;;;4915991;29;20032;-64
2022/01/10 02:02:51;;;;;;;2.03;1.80;;;-8.00;99.90;;;;;;4915494;29;20136;-65
2022/01/10 02:05:17;;;;;;;2.20;1.50;;;-8.00;99.90;;;;;;4915929;29;20048;-64
2022/01/10 02:07:43;;;;;;;1.75;1.58;;;-8.00;99.90;;;;;;4915594;29;20040;-64
2022/01/10 02:10:09;;;;;;;1.48;1.38;;;-8.00;99.90;;;;;;4915666;29;20016;-64
2022/01/10 02:12:35;;;;;;;2.08;1.45;;;-8.00;99.90;;;;;;4915581;29;20024;-64
2022/01/10 02:15:00;;;;;;;2.05;1.80;;;-8.10;99.90;;;;;;4898677;29;20024;-66
2022/01/10 02:17:34;;;;;;;2.40;1.40;;;-8.20;99.90;;;;;;4915607;29;20119;-65
2022/01/10 02:20:03;;;;;;;3.03;1.42;;;-8.30;99.90;;;;;;4915647;29;20079;-65
2022/01/10 02:22:29;;;;;;;1.55;1.45;;;-8.30;99.90;;;;;;4915472;29;20031;-65
2022/01/10 02:56:25;;;;;;;2.50;1.40;;;-9.00;99.90;;;;;;4918200;29;20087;-65
2022/01/10 02:58:51;;;;;;;3.35;1.63;;;-9.10;99.00;;;;;;4918393;29;20028;-65
2022/01/10 03:01:16;;;;;;;3.17;1.55;;;-9.20;98.30;;;;;;4918542;29;20063;-65
2022/01/10 03:37:22;;;;;;;1.95;1.42;;;-9.70;99.90;;;;;;5533831;23;20064;-69
2022/01/10 03:39:47;;;;;;;1.65;1.50;;;-9.70;99.90;;;;;;4899244;29;20080;-70
2022/01/10 03:42:13;;;;;;;2.35;1.67;;;-9.80;99.90;;;;;;4899009;29;20025;-69
2022/01/10 03:44:39;;;;;;;1.58;1.33;;;-9.80;99.90;;;;;;4899281;29;20040;-69
2022/01/10 03:47:05;;;;;;;1.50;1.40;;;-9.80;99.90;;;;;;4898586;29;20476;-70
2022/01/10 03:49:31;;;;;;;2.25;1.73;;;-9.80;99.90;;;;;;4898796;29;20028;-68
2022/01/10 03:51:57;;;;;;;1.90;1.65;;;-9.80;99.90;;;;;;4898629;29;20024;-69
2022/01/10 03:54:23;;;;;;;1.67;1.50;;;-9.90;99.90;;;;;;4898726;29;20073;-69
2022/01/10 03:56:49;;;;;;;1.98;1.60;;;-9.90;99.90;;;;;;4898617;29;20079;-69
2022/01/10 03:59:15;;;;;;;1.98;1.40;;;-9.90;99.90;;;;;;4898462;29;20607;-68
2022/01/10 04:01:40;;;;;;;2.15;1.88;;;-10.00;99.90;;;;;;4898815;29;20032;-68
2022/01/10 04:04:07;;;;;;;1.42;1.33;;;-10.00;99.90;;;;;;4898302;29;20457;-68
2022/01/10 04:06:33;;;;;;;1.48;1.38;;;-10.00;99.90;;;;;;4898436;29;20035;-68
2022/01/10 04:08:59;;;;;;;2.35;1.65;;;-10.00;99.90;;;;;;4898165;29;20039;-69
2022/01/10 04:11:25;;;;;;;3.95;1.77;;;-10.00;99.90;;;;;;4898733;29;20029;-69
2022/01/10 04:13:50;;;;;;;1.88;1.77;;;-10.00;99.90;;;;;;4898529;29;20036;-69
2022/01/10 04:16:16;;;;;;;1.70;1.60;;;-10.00;99.90;;;;;;4898279;29;20489;-69
2022/01/10 04:18:42;;;;;;;2.30;1.52;;;-9.90;99.90;;;;;;4898184;29;20064;-69
2022/01/10 04:21:09;;;;;;;1.80;1.60;;;-9.90;99.90;;;;;;4898149;29;20040;-68
2022/01/10 04:23:34;;;;;;;2.38;1.67;;;-9.80;99.90;;;;;;4898183;29;20030;-69
2022/01/10 04:26:01;;;;;;;1.75;1.58;;;-9.80;99.90;;;;;;4897979;29;20408;-69
2022/01/10 04:28:26;;;;;;;1.70;1.60;;;-9.80;99.90;;;;;;4897861;29;20032;-69
2022/01/10 04:30:52;;;;;;;1.75;1.55;;;-9.70;99.90;;;;;;4898053;29;20028;-69
2022/01/10 04:33:19;;;;;;;1.60;1.50;;;-9.70;99.90;;;;;;4897826;29;20048;-69
2022/01/10 04:35:47;;;;;;;1.90;1.80;;;-9.80;99.90;;;;;;4897978;29;20025;-69
2022/01/10 04:38:13;;;;;;;2.58;1.48;;;-9.80;99.90;;;;;;4897429;29;20055;-69
2022/01/10 04:40:39;;;;;;;1.65;1.55;;;-9.80;99.90;;;;;;4897860;29;20029;-69
2022/01/10 04:43:05;;;;;;;5.32;2.40;;;-9.90;99.90;;;;;;4897677;29;20029;-69
2022/01/10 04:45:31;;;;;;;5.50;2.38;;;-9.90;99.90;;;;;;4897820;29;20028;-69
2022/01/10 04:47:57;;;;;;;6.68;2.38;;;-9.80;99.90;;;;;;4896866;29;20040;-68
2022/01/10 04:52:50;;;;;;;3.72;2.08;;;-9.80;99.90;;;;;;4897674;29;20063;-68
2022/01/10 04:55:17;;;;;;;2.35;1.80;;;-9.80;99.90;;;;;;4897644;29;20160;-68
2022/01/10 04:57:43;;;;;;;2.35;2.10;;;-9.80;99.90;;;;;;4897692;29;20028;-69
2022/01/10 05:00:12;;;;;;;2.00;1.90;;;-9.80;99.90;;;;;;4897543;29;20036;-69
2022/01/10 05:02:40;;;;;;;1.88;1.77;;;-9.80;99.90;;;;;;4897859;29;20056;-69
2022/01/10 05:05:06;;;;;;;4.55;2.13;;;-9.80;99.90;;;;;;4897300;29;20033;-68
2022/01/10 05:07:32;;;;;;;3.00;2.17;;;-9.80;99.90;;;;;;4897274;29;20069;-69
2022/01/10 05:09:58;;;;;;;2.05;1.85;;;-9.80;99.90;;;;;;4897280;29;20028;-69
2022/01/10 05:12:26;;;;;;;4.18;1.63;;;-9.70;99.90;;;;;;4897260;29;20104;-69
2022/01/10 05:14:52;;;;;;;1.83;1.73;;;-9.80;99.90;;;;;;4897304;29;20492;-68
2022/01/10 05:17:19;;;;;;;1.88;1.60;;;-9.80;99.90;;;;;;4895790;29;20127;-69
2022/01/10 05:19:46;;;;;;;2.92;2.00;;;-9.80;99.90;;;;;;4897173;29;20036;-69
2022/01/10 05:22:11;;;;;;;2.10;1.90;;;-9.90;99.90;;;;;;4895857;29;20396;-68
2022/01/10 05:24:37;;;;;;;3.72;1.98;;;-9.80;99.90;;;;;;4897029;29;20027;-69
2022/01/10 05:27:03;;;;;;;3.05;1.80;;;-9.80;99.90;;;;;;4896848;29;20033;-69
2022/01/10 05:29:29;;;;;;;1.70;1.60;;;-9.80;99.90;;;;;;4897230;29;20073;-68
2022/01/10 05:31:55;;;;;;;1.98;1.77;;;-9.80;99.90;;;;;;4897404;29;20522;-67
2022/01/10 05:34:21;;;;;;;3.05;1.42;;;-9.80;99.90;;;;;;4896788;29;20032;-68
2022/01/10 05:36:47;;;;;;;3.13;1.80;;;-9.80;99.90;;;;;;4896886;29;20184;-66
2022/01/10 05:39:13;;;;;;;2.25;1.75;;;-9.90;99.90;;;;;;4897063;29;20065;-69
2022/01/10 05:41:39;;;;;;;2.22;1.88;;;-9.30;99.90;;;;;;4896721;29;20504;-68
2022/01/10 05:44:05;;;;;;;2.15;1.70;;;-8.70;99.90;;;;;;4896582;29;20032;-69
2022/01/10 05:46:31;;;;;;;1.40;1.30;;;-8.90;99.90;;;;;;4896980;29;20040;-70
2022/01/10 05:49:01;;;;;;;3.38;1.67;;;-9.10;99.90;;;;;;4896211;29;20397;-70
2022/01/10 05:51:36;;;;;;;2.92;1.90;;;-9.20;99.90;;;;;;4896647;29;20096;-69
2022/01/10 05:54:03;;;;;;;1.90;1.77;;;-9.30;99.90;;;;;;4894972;29;20035;-69
2022/01/10 05:56:29;;;;;;;1.60;1.50;;;-9.40;99.90;;;;;;4895973;29;20536;-69
2022/01/10 05:58:55;;;;;;;2.88;1.80;;;-9.50;99.90;;;;;;4897054;29;20059;-68
2022/01/10 06:01:21;;;;;;;1.70;1.60;;;-9.50;99.90;;;;;;4900092;29;20025;-67
2022/01/10 06:03:47;;;;;;;3.17;2.00;;;-9.50;99.90;;;;;;4899747;29;20044;-67
2022/01/10 06:06:12;;;;;;;2.38;2.17;;;-9.50;99.90;;;;;;4899901;29;20080;-67
2022/01/10 06:08:38;;;;;;;1.80;1.70;;;-9.40;99.90;;;;;;4900113;29;20039;-67
2022/01/10 06:11:04;;;;;;;1.70;1.60;;;-9.40;99.90;;;;;;4900236;29;20067;-68
2022/01/10 06:13:30;;;;;;;4.03;2.30;;;-9.40;99.90;;;;;;4900830;29;20047;-68
2022/01/10 06:15:56;;;;;;;6.53;2.58;;;-9.40;99.90;;;;;;4900516;29;20468;-68
2022/01/10 06:18:21;;;;;;;6.70;2.85;;;-9.30;99.90;;;;;;4900126;29;20028;-68
2022/01/10 06:20:47;;;;;;;6.25;2.50;;;-9.30;99.90;;;;;;4900646;29;20025;-67
2022/01/10 06:23:13;;;;;;;8.52;2.85;;;-9.30;99.90;;;;;;4899710;29;20037;-67
2022/01/10 06:25:40;;;;;;;3.17;2.38;;;-9.40;99.90;;;;;;4899082;29;20033;-66
2022/01/10 06:28:07;;;;;;;5.53;2.60;;;-9.50;99.90;;;;;;4899904;29;20127;-67
2022/01/10 06:30:32;;;;;;;3.85;2.58;;;-9.50;99.90;;;;;;4900423;29;20111;-67
2022/01/10 06:32:58;;;;;;;5.88;2.97;;;-9.40;99.90;;;;;;4900387;29;20157;-67
2022/01/10 06:35:24;;;;;;;3.65;2.67;;;-8.90;99.90;;;;;;4900217;29;20025;-67
2022/01/10 06:37:51;;;;;;;7.22;2.45;;;-9.00;99.90;;;;;;4899830;29;20093;-67
2022/01/10 06:40:17;;;;;;;3.88;2.60;;;-9.10;99.90;;;;;;4899938;29;20504;-67
2022/01/10 06:42:43;;;;;;;4.38;2.42;;;-9.30;99.90;;;;;;4899840;29;20048;-67
2022/01/10 06:45:09;;;;;;;5.95;2.97;;;-9.50;99.90;;;;;;4899621;29;20021;-67
2022/01/10 06:47:36;;;;;;;3.65;2.70;;;-9.60;99.90;;;;;;4899538;29;20507;-67
2022/01/10 06:50:02;;;;;;;6.63;2.95;;;-9.80;99.90;;;;;;4900140;29;20060;-67
2022/01/10 06:52:28;;;;;;;12.45;3.25;;;-9.90;99.90;;;;;;4899758;29;20457;-68
2022/01/10 06:54:53;;;;;;;7.47;2.70;;;-9.90;99.90;;;;;;4899691;29;20025;-67
2022/01/10 06:57:19;;;;;;;4.38;2.53;;;-9.60;99.90;;;;;;4899625;29;20033;-68
2022/01/10 06:59:45;;;;;;;2.40;2.20;;;-9.20;99.90;;;;;;4899530;29;20084;-68
2022/01/10 07:02:10;;;;;;;4.60;2.33;;;-9.40;99.90;;;;;;4899599;29;20511;-67
2022/01/10 07:04:36;;;;;;;3.03;2.10;;;-9.60;99.90;;;;;;4899894;29;20491;-67
2022/01/10 07:07:03;;;;;;;2.80;1.98;;;-9.70;99.90;;;;;;4899791;29;20396;-67
2022/01/10 07:09:29;;;;;;;5.88;2.47;;;-9.80;99.90;;;;;;4899466;29;20039;-67
2022/01/10 07:11:54;;;;;;;3.53;2.45;;;-9.80;99.90;;;;;;4898806;29;20028;-68
2022/01/10 07:14:20;;;;;;;7.65;2.53;;;-9.90;99.90;;;;;;4899341;29;20033;-68
2022/01/10 07:16:48;;;;;;;3.20;2.35;;;-9.90;99.90;;;;;;4899489;29;20096;-68
2022/01/10 07:19:15;;;;;;;2.60;2.10;;;-9.90;99.90;;;;;;4896633;29;20051;-67
2022/01/10 07:21:41;;;;;;;5.05;2.15;;;-10.00;99.90;;;;;;4899075;29;20024;-69
2022/01/10 07:24:07;;;;;;;5.22;2.10;;;-10.00;99.90;;;;;;4897698;29;20029;-68
2022/01/10 07:26:33;;;;;;;4.22;2.22;;;-10.00;99.90;;;;;;4899271;29;20029;-69
2022/01/10 07:29:04;;;;;;;3.83;2.58;;;-10.00;99.90;;;;;;4899291;29;20396;-66
2022/01/10 07:31:29;;;;;;;4.70;2.28;;;-10.00;99.90;;;;;;4899192;29;20095;-67
2022/01/10 07:33:57;;;;;;;3.97;2.50;;;-10.00;99.90;;;;;;4899033;29;20480;-66
2022/01/10 07:36:23;;;;;;;5.82;3.00;;;-10.10;99.90;;;;;;4898863;29;20032;-69
2022/01/10 07:38:49;;;;;;;3.88;2.78;;;-10.20;99.90;;;;;;4898888;29;20040;-66
2022/01/10 07:41:15;;;;;;;4.07;2.58;;;-10.20;99.90;;;;;;4898850;29;20031;-66
2022/01/10 07:43:41;;;;;;;5.25;2.63;;;-10.20;99.90;;;;;;4899042;29;20107;-67
2022/01/10 07:46:07;;;;;;;3.10;2.15;;;-10.20;99.90;;;;;;4898972;29;20473;-66
2022/01/10 07:48:36;;;;;;;6.28;2.47;;;-10.20;99.90;;;;;;4898653;29;20085;-65
2022/01/10 07:51:03;;;;;;;4.80;2.60;;;-10.20;99.90;;;;;;4898787;29;20025;-64
2022/01/10 07:53:29;;;;;;;5.72;2.47;;;-8.50;99.90;;;;;;4898402;29;20433;-68
2022/01/10 07:55:55;;;;;;;4.00;3.00;;;-6.70;99.90;;;;;;4898057;29;20021;-71
2022/01/10 07:58:21;;;;;;;6.63;3.85;;;-5.60;99.90;;;;;;4897955;29;20039;-71
2022/01/10 08:00:47;;;;;;;7.65;3.70;;;-6.40;99.90;;;;;;4898167;29;20464;-73
2022/01/10 08:03:13;;;;;;;5.97;3.65;;;-7.40;99.90;;;;;;4897832;29;20035;-70
2022/01/10 08:05:39;;;;;;;7.20;4.05;;;-8.10;99.90;;;;;;4897635;29;20021;-69
2022/01/10 08:08:05;;;;;;;7.28;4.30;;;-8.60;99.90;;;;;;4897796;29;20036;-69
2022/01/10 08:10:31;;;;;;;7.68;4.65;;;-8.90;99.90;;;;;;4898061;29;20033;-69
2022/01/10 08:12:57;;;;;;;6.20;3.85;;;-9.00;99.90;;;;;;4897680;29;20461;-69
2022/01/10 08:15:23;;;;;;;9.90;5.47;;;-9.10;99.90;;;;;;4898180;29;20032;-69
2022/01/10 08:17:49;;;;;;;7.78;5.10;;;-9.20;99.90;;;;;;4898293;29;20033;-69
2022/01/10 08:20:15;;;;;;;7.30;4.30;;;-9.20;99.90;;;;;;4897994;29;20465;-69
2022/01/10 08:22:40;;;;;;;9.50;5.03;;;-9.30;99.90;;;;;;4897340;29;20060;-69
2022/01/10 08:25:09;;;;;;;6.50;4.30;;;-9.40;99.90;;;;;;4898271;29;20115;-69
2022/01/10 08:27:35;;;;;;;9.70;4.93;;;-9.50;99.90;;;;;;4898020;29;20171;-69
2022/01/10 08:30:04;;;;;;;6.00;4.07;;;-9.40;99.90;;;;;;4898301;29;20174;-69
2022/01/10 08:32:30;;;;;;;11.85;4.93;;;-9.40;99.90;;;;;;4897762;29;20481;-69
2022/01/10 08:34:56;;;;;;;11.25;4.25;;;-9.40;99.90;;;;;;4898144;29;20036;-68
2022/01/10 08:37:22;;;;;;;13.43;4.45;;;-9.40;99.90;;;;;;4897406;29;20056;-68
2022/01/10 08:39:49;;;;;;;10.95;4.07;;;-9.40;99.90;;;;;;4897643;29;20068;-68
2022/01/10 08:42:22;;;;;;;3.20;2.40;;;-9.40;99.90;;;;;;4897448;29;20035;-70
2022/01/10 08:44:58;;;;;;;7.80;4.10;;;-8.10;99.90;;;;;;5130264;27;20335;-69
2022/01/10 08:47:26;;;;;;;8.10;4.15;;;-6.40;99.90;;;;;;5109652;28;20529;-69
2022/01/10 08:49:51;;;;;;;9.35;4.50;;;-5.50;99.90;;;;;;5109824;28;20056;-69
2022/01/10 08:52:17;;;;;;;5.53;3.50;;;-6.10;99.90;;;;;;5109845;28;20055;-69
2022/01/10 08:54:43;;;;;;;13.23;3.20;;;-7.00;99.90;;;;;;5109644;28;20417;-69
2022/01/10 08:57:09;;;;;;;6.30;2.72;;;-7.70;99.90;;;;;;5109713;28;20019;-69
2022/01/10 08:59:34;;;;;;;10.05;4.53;;;-8.00;99.90;;;;;;5109531;28;20044;-69
2022/01/10 09:02:00;;;;;;;12.88;5.15;;;-8.20;99.90;;;;;;5108310;28;20119;-69
2022/01/10 09:04:27;;;;;;;12.20;4.47;;;-8.20;99.90;;;;;;5109295;28;20471;-69
2022/01/10 09:06:55;;;;;;;9.50;4.35;;;-8.40;99.90;;;;;;5109806;28;20028;-69
2022/01/10 09:09:21;;;;;;;17.20;6.03;;;-8.50;99.90;;;;;;5109458;28;20103;-69
2022/01/10 09:11:47;;;;;;;41.67;13.57;;;-8.60;99.90;;;;;;5109759;28;20020;-69
2022/01/10 09:14:14;;;;;;;49.97;13.85;;;-8.60;99.90;;;;;;5109428;28;20047;-69
2022/01/10 09:16:41;;;;;;;20.88;6.82;;;-8.60;99.90;;;;;;5109191;28;20099;-69
2022/01/10 09:19:07;;;;;;;29.15;11.80;;;-8.70;99.90;;;;;;5109364;28;20081;-69
2022/01/10 09:21:33;;;;;;;25.65;9.82;;;-8.70;99.90;;;;;;5109000;28;20454;-69
2022/01/10 09:23:59;;;;;;;21.30;9.80;;;-8.80;99.90;;;;;;5109081;28;20511;-69
2022/01/10 09:26:25;;;;;;;23.10;10.38;;;-8.80;99.90;;;;;;5109281;28;20028;-69
2022/01/10 09:28:51;;;;;;;16.25;7.35;;;-8.80;99.90;;;;;;5109098;28;20470;-69
2022/01/10 09:31:17;;;;;;;19.05;7.15;;;-8.80;99.90;;;;;;5108955;28;20024;-68
2022/01/10 09:33:47;;;;;;;10.10;4.93;;;-8.80;99.90;;;;;;5109281;28;20065;-70
2022/01/10 09:36:13;;;;;;;12.70;6.15;;;-4.40;99.90;;;;;;5106683;28;20386;-68
2022/01/10 09:38:39;;;;;;;8.77;4.70;;;-4.90;99.90;;;;;;5088580;28;20032;-68
2022/01/10 09:41:04;;;;;;;6.00;3.90;;;-5.80;99.90;;;;;;5088885;28;20024;-68
2022/01/10 09:43:31;;;;;;;5.35;3.42;;;-6.40;99.90;;;;;;5088061;28;20056;-68
2022/01/10 09:45:56;;;;;;;23.35;8.63;;;-6.90;99.90;;;;;;5088141;28;20471;-67
2022/01/10 09:48:23;;;;;;;19.90;4.93;;;-7.20;99.90;;;;;;5088075;28;20032;-68
2022/01/10 09:50:49;;;;;;;14.63;6.05;;;-6.20;99.90;;;;;;5088639;28;20017;-68
2022/01/10 09:53:17;;;;;;;18.15;6.85;;;-6.20;99.90;;;;;;5088353;28;20039;-68
2022/01/10 09:55:43;;;;;;;11.65;4.35;;;-6.70;99.90;;;;;;5077874;28;20020;-67
2022/01/10 09:58:09;;;;;;;8.73;4.32;;;-6.30;99.90;;;;;;5074599;28;20035;-68
2022/01/10 10:00:35;;;;;;;7.78;4.25;;;-3.30;99.90;;;;;;5074647;28;20024;-68
2022/01/10 10:03:04;;;;;;;11.75;4.95;;;-2.40;99.90;;;;;;5074503;28;20032;-68
2022/01/10 10:05:30;;;;;;;10.02;5.30;;;-3.00;99.90;;;;;;5073021;28;20060;-69
2022/01/10 10:07:57;;;;;;;11.82;4.95;;;-4.10;99.90;;;;;;5074157;28;20113;-69
2022/01/10 10:10:22;;;;;;;9.63;4.85;;;-4.90;99.90;;;;;;5074426;28;20430;-68
2022/01/10 10:12:50;;;;;;;8.60;4.22;;;-5.50;99.90;;;;;;5074422;28;20021;-69
2022/01/10 10:15:20;;;;;;;12.48;5.22;;;-5.80;99.90;;;;;;5074221;28;20029;-68
2022/01/10 10:17:46;;;;;;;7.47;5.17;;;-6.20;99.90;;;;;;5074457;28;20082;-69
2022/01/10 10:20:21;;;;;;;8.95;4.68;;;-6.40;99.90;;;;;;5074506;28;20259;-69
2022/01/10 10:22:49;;;;;;;11.32;4.88;;;-6.50;99.90;;;;;;5074241;28;20146;-69
2022/01/10 10:25:17;;;;;;;7.55;4.45;;;-6.60;99.90;;;;;;5073825;28;20033;-69
2022/01/10 10:27:45;;;;;;;8.88;5.07;;;-6.80;99.90;;;;;;5074151;28;20023;-69
2022/01/10 10:30:26;;;;;;;6.72;3.88;;;-6.90;99.90;;;;;;5073977;28;20028;-69
2022/01/10 10:32:51;;;;;;;;;;;-7.00;99.90;;;;;;5074489;28;20082;-69
2022/01/10 10:35:18;;;;;;;3.83;2.70;;;-6.50;99.90;;;;;;5074084;28;19904;-69
2022/01/10 10:37:46;;;;;;;9.80;4.15;;;-5.50;99.90;;;;;;5074017;28;20119;-69
2022/01/10 10:40:14;;;;;;;10.25;4.50;;;-4.60;99.90;;;;;;5074075;28;20021;-69
2022/01/10 10:42:42;;;;;;;9.98;5.00;;;-4.90;99.90;;;;;;5072826;28;20040;-69
2022/01/10 10:45:11;;;;;;;8.98;4.97;;;-5.40;99.90;;;;;;5072761;28;20036;-69
2022/01/10 10:47:42;;;;;;;12.88;5.28;;;-5.70;99.90;;;;;;5073377;28;20086;-67
2022/01/10 10:50:10;;;;;;;12.00;5.20;;;-6.00;99.90;;;;;;5073153;28;20028;-67
2022/01/10 10:52:38;;;;;;;9.20;5.25;;;-6.30;99.90;;;;;;5073059;28;20494;-68
2022/01/10 10:55:06;;;;;;;9.80;4.93;;;-6.40;99.90;;;;;;5072506;28;20428;-69
2022/01/10 10:57:32;;;;;;;8.50;4.97;;;-6.50;99.90;;;;;;5072700;28;20028;-68
2022/01/10 11:00:00;;;;;;;8.00;4.50;;;-6.50;99.90;;;;;;5072670;28;20529;-68
2022/01/10 11:02:26;;;;;;;7.93;4.78;;;-6.60;99.90;;;;;;5073353;28;20378;-68
2022/01/10 11:04:52;;;;;;;11.95;4.97;;;-6.60;99.90;;;;;;5073585;28;20115;-68
2022/01/10 11:07:22;;;;;;;10.93;5.38;;;-6.60;99.90;;;;;;5070879;28;20167;-68
2022/01/10 11:09:49;;;;;;;9.60;5.60;;;-6.60;99.90;;;;;;5073359;28;20574;-68
2022/01/10 11:12:20;;;;;;;19.58;5.38;;;-6.70;99.90;;;;;;5073520;28;20119;-68
2022/01/10 11:14:46;;;;;;;11.57;5.03;;;-6.70;99.90;;;;;;5073552;28;20103;-68
2022/01/10 11:17:21;;;;;;;11.70;5.82;;;-6.70;99.90;;;;;;5073157;28;20518;-68
2022/01/10 11:20:10;;;;;;;10.30;5.45;;;-6.80;99.90;;;;;;5073118;28;20028;-68
2022/01/10 11:22:44;;;;;;;14.52;5.70;;;-6.80;99.90;;;;;;5072949;28;20499;-68
2022/01/10 11:25:29;;;;;;;20.15;5.88;;;-6.80;99.90;;;;;;5073214;28;20493;-68
2022/01/10 11:28:01;;;;;;;14.23;6.20;;;-6.80;99.90;;;;;;5073284;28;20074;-68
2022/01/10 11:30:42;;;;;;;9.95;5.55;;;-6.70;99.90;;;;;;5072712;28;20434;-68
2022/01/10 11:33:08;;;;;;;11.10;5.60;;;-6.70;99.90;;;;;;5072771;28;20028;-68
2022/01/10 11:35:36;;;;;;;10.23;5.22;;;-6.70;99.90;;;;;;5072785;28;20025;-68
2022/01/10 11:38:24;;;;;;;18.35;5.15;;;-6.80;99.90;;;;;;5072537;28;20021;-68
2022/01/10 11:40:55;;;;;;;11.57;5.63;;;-6.70;99.90;;;;;;5072614;28;20476;-68
2022/01/10 11:43:44;;;;;;;18.10;6.10;;;-6.70;99.90;;;;;;5072444;28;20048;-69
2022/01/10 11:46:22;;;;;;;17.00;5.65;;;-6.70;99.90;;;;;;5072935;28;20028;-69
2022/01/10 11:48:58;;;;;;;15.77;5.65;;;-6.60;99.90;;;;;;5072747;28;20561;-67
2022/01/10 11:51:34;;;;;;;13.13;6.25;;;-6.70;99.90;;;;;;5072311;28;20025;-68
2022/01/10 11:54:17;;;;;;;16.48;7.03;;;-6.70;99.90;;;;;;5072778;28;20037;-68
2022/01/10 11:56:54;;;;;;;12.25;6.68;;;-6.60;99.90;;;;;;5072550;28;20024;-68
2022/01/10 11:59:27;;;;;;;13.27;6.18;;;-6.60;99.90;;;;;;5072297;28;20475;-68
2022/01/10 12:01:57;;;;;;;19.60;6.63;;;-6.60;99.90;;;;;;5072723;28;20025;-68
2022/01/10 12:04:23;;;;;;;13.45;6.13;;;-6.60;99.90;;;;;;5072245;28;20110;-68
2022/01/10 12:06:50;;;;;;;14.20;6.55;;;-6.60;99.90;;;;;;5072596;28;20036;-69
2022/01/10 12:09:18;;;;;;;14.10;6.25;;;-6.50;99.90;;;;;;5072456;28;20032;-68
2022/01/10 12:11:45;;;;;;;11.55;6.30;;;-6.50;99.90;;;;;;5072600;28;20384;-68
2022/01/10 12:14:12;;;;;;;13.63;6.40;;;-6.60;99.90;;;;;;5072238;28;20082;-68
2022/01/10 12:16:38;;;;;;;14.95;6.68;;;-6.50;99.90;;;;;;5072115;28;20063;-68
2022/01/10 12:19:05;;;;;;;16.02;6.55;;;-6.50;99.90;;;;;;5071831;28;20553;-68
2022/01/10 12:21:31;;;;;;;15.50;6.40;;;-6.50;99.90;;;;;;5072207;28;20391;-68
2022/01/10 12:23:58;;;;;;;12.75;6.70;;;-6.40;99.90;;;;;;5072278;28;20036;-68
2022/01/10 12:26:24;;;;;;;15.27;6.07;;;-6.40;99.90;;;;;;5072174;28;20027;-68
2022/01/10 12:28:53;;;;;;;15.50;5.82;;;-6.40;99.90;;;;;;5072005;28;20419;-68
2022/01/10 12:31:23;;;;;;;18.73;5.95;;;-6.40;99.90;;;;;;5072266;28;20383;-68
2022/01/10 12:33:50;;;;;;;17.67;7.20;;;-6.40;99.90;;;;;;5071908;28;20100;-68
2022/01/10 12:36:18;;;;;;;15.07;7.32;;;-6.30;99.90;;;;;;5072092;28;20182;-68
2022/01/10 12:43:34;;;;;;;16.55;8.00;;;-6.30;99.90;;;;;;5071498;28;20033;-68
2022/01/10 12:46:00;;;;;;;14.95;7.00;;;-6.20;99.90;;;;;;5072157;28;20449;-68
2022/01/10 12:48:26;;;;;;;14.95;7.15;;;-6.20;99.90;;;;;;5071812;28;20059;-67
2022/01/10 12:50:54;;;;;;;14.18;6.22;;;-6.10;99.90;;;;;;5071778;28;20426;-68
2022/01/10 12:53:21;;;;;;;16.95;6.70;;;-5.80;99.90;;;;;;5071540;28;20024;-68
2022/01/10 12:55:48;;;;;;;16.42;7.32;;;-5.40;99.90;;;;;;5071316;28;20056;-68
2022/01/10 12:58:14;;;;;;;24.90;7.82;;;-5.50;99.90;;;;;;5071721;28;20114;-68
2022/01/10 13:00:40;;;;;;;13.50;7.28;;;-5.60;99.90;;;;;;5071724;28;20535;-69
2022/01/10 13:03:06;;;;;;;13.43;7.07;;;-5.70;99.90;;;;;;5071568;28;20040;-67
2022/01/10 13:05:34;;;;;;;8.20;2.88;;;-5.70;99.90;;;;;;5071551;28;20080;-68
2022/01/10 13:08:00;;;;;;;16.98;7.00;;;-3.20;99.90;;;;;;5071880;28;20104;-68
2022/01/10 13:10:33;;;;;;;10.68;6.57;;;-1.40;99.90;;;;;;5071309;28;20104;-67
2022/01/10 13:13:01;;;;;;;12.48;6.65;;;-2.00;99.90;;;;;;5071550;28;20024;-68
2022/01/10 13:15:35;;;;;;;12.15;6.72;;;-2.80;99.90;;;;;;5071213;28;20036;-68
2022/01/10 13:18:03;;;;;;;14.75;7.30;;;-3.40;99.90;;;;;;5071895;28;20077;-68
2022/01/10 13:20:32;;;;;;;17.20;7.60;;;-3.80;99.90;;;;;;5071378;28;20379;-68
2022/01/10 13:23:07;;;;;;;14.35;7.18;;;-4.20;99.90;;;;;;5071462;28;20032;-67
2022/01/10 13:25:48;;;;;;;17.67;7.68;;;-4.40;99.90;;;;;;5071312;28;20028;-68
2022/01/10 13:28:14;;;;;;;16.00;8.43;;;-4.60;99.90;;;;;;5071736;28;20025;-68
2022/01/10 13:30:55;;;;;;;14.68;7.13;;;-4.70;99.90;;;;;;5073460;28;20465;-68
2022/01/10 13:33:34;;;;;;;14.65;6.05;;;-4.70;99.90;;;;;;5074731;28;20074;-68
2022/01/10 13:36:00;;;;;;;16.05;8.02;;;-4.80;99.90;;;;;;5072742;28;20481;-67
2022/01/10 13:38:27;;;;;;;24.90;10.95;;;-4.50;99.90;;;;;;5074619;28;20046;-68
2022/01/10 13:40:55;;;;;;;19.45;9.77;;;-4.40;99.90;;;;;;5074921;28;20036;-68
2022/01/10 13:43:23;;;;;;;16.13;7.63;;;-4.50;99.90;;;;;;5074522;28;20507;-68
2022/01/10 13:46:01;;;;;;;12.25;5.43;;;-4.60;99.90;;;;;;5075031;28;20108;-69
2022/01/10 13:48:34;;;;;;;14.45;6.38;;;-4.70;99.90;;;;;;5075128;28;20368;-69
2022/01/10 13:51:20;;;;;;;19.77;8.20;;;-4.70;99.90;;;;;;5074680;28;20506;-69
2022/01/10 13:53:48;;;;;;;15.10;6.72;;;-4.80;99.90;;;;;;5074467;28;20033;-69
2022/01/10 13:56:20;;;;;;;20.65;5.25;;;-4.90;99.90;;;;;;5074510;28;20017;-68
2022/01/10 13:59:06;;;;;;;7.47;3.88;;;-5.00;99.90;;;;;;5073361;28;20032;-69
2022/01/10 14:01:33;;;;;;;9.40;3.97;;;-5.10;99.90;;;;;;5068665;28;20045;-68
2022/01/10 14:04:01;;;;;;;14.60;4.40;;;-5.20;99.90;;;;;;5067122;28;20040;-69
2022/01/10 14:06:31;;;;;;;8.10;3.22;;;-5.20;99.90;;;;;;5065500;28;20032;-69